createdAt,value
2017-09-12T00:01:57.428Z,2.30
2017-09-12T00:04:24.068Z,2.40
2017-09-12T00:06:50.675Z,1.57
2017-09-12T00:09:17.309Z,1.70
2017-09-12T00:11:43.915Z,1.67
2017-09-12T00:14:10.531Z,2.37
2017-09-12T00:16:37.175Z,4.43
2017-09-12T00:19:03.786Z,2.30
2017-09-12T00:21:30.427Z,3.50
2017-09-12T00:23:57.048Z,2.67
2017-09-12T00:26:23.691Z,2.33
2017-09-12T00:28:50.319Z,2.13
2017-09-12T00:31:16.968Z,1.73
2017-09-12T00:33:43.595Z,2.63
2017-09-12T00:36:10.371Z,2.00
2017-09-12T00:38:36.999Z,2.07
2017-09-12T00:41:03.620Z,1.90
2017-09-12T00:43:30.251Z,2.00
2017-09-12T00:45:56.855Z,2.20
2017-09-12T00:48:23.476Z,2.33
2017-09-12T00:50:50.099Z,1.83
2017-09-12T00:53:16.748Z,3.00
2017-09-12T00:55:43.382Z,2.67
2017-09-12T00:58:09.986Z,2.43
2017-09-12T01:00:36.651Z,2.03
2017-09-12T01:03:03.268Z,2.00
2017-09-12T01:05:29.870Z,2.33
2017-09-12T01:07:56.508Z,2.20
2017-09-12T01:10:23.132Z,1.90
2017-09-12T01:12:49.742Z,3.10
2017-09-12T01:15:16.370Z,2.00
2017-09-12T01:17:42.994Z,2.30
2017-09-12T01:20:09.650Z,2.40
2017-09-12T01:22:36.254Z,2.63
2017-09-12T01:25:02.875Z,2.30
2017-09-12T01:27:29.506Z,3.03
2017-09-12T01:29:56.118Z,1.73
2017-09-12T01:32:22.751Z,2.57
2017-09-12T01:34:49.363Z,2.83
2017-09-12T01:37:16.006Z,3.73
2017-09-12T01:39:42.616Z,3.17
2017-09-12T01:42:09.236Z,2.10
2017-09-12T01:44:39.082Z,2.07
2017-09-12T01:47:05.690Z,2.27
2017-09-12T01:49:35.893Z,2.03
2017-09-12T01:52:03.931Z,2.07
2017-09-12T01:54:30.564Z,2.70
2017-09-12T01:56:57.170Z,2.37
2017-09-12T01:59:23.791Z,3.40
2017-09-12T02:01:50.415Z,2.50
2017-09-12T02:04:17.050Z,2.33
2017-09-12T02:06:43.666Z,2.20
2017-09-12T02:09:10.311Z,2.90
2017-09-12T02:11:36.923Z,3.00
2017-09-12T02:14:03.552Z,3.10
2017-09-12T02:16:30.267Z,1.93
2017-09-12T02:18:56.881Z,2.03
2017-09-12T02:21:23.475Z,1.93
2017-09-12T02:23:50.229Z,1.83
2017-09-12T02:26:16.854Z,2.20
2017-09-12T02:28:43.741Z,1.87
2017-09-12T02:31:10.441Z,2.27
2017-09-12T02:33:37.064Z,3.67
2017-09-12T02:36:03.954Z,2.57
2017-09-12T02:38:30.829Z,2.77
2017-09-12T02:40:57.459Z,1.73
2017-09-12T02:43:24.092Z,2.47
2017-09-12T02:45:50.717Z,2.50
2017-09-12T02:48:17.374Z,2.30
2017-09-12T02:50:44.012Z,1.83
2017-09-12T02:53:10.644Z,1.67
2017-09-12T02:55:37.258Z,1.80
2017-09-12T02:58:03.904Z,1.97
2017-09-12T03:00:30.545Z,1.70
2017-09-12T03:02:57.171Z,1.77
2017-09-12T03:05:23.789Z,1.90
2017-09-12T03:07:50.447Z,2.97
2017-09-12T03:10:17.068Z,2.23
2017-09-12T03:12:43.695Z,3.83
2017-09-12T03:15:10.329Z,2.47
2017-09-12T03:17:36.936Z,2.10
2017-09-12T03:20:03.569Z,2.27
2017-09-12T03:22:30.429Z,2.07
2017-09-12T03:24:57.081Z,2.57
2017-09-12T03:27:23.832Z,1.80
2017-09-12T03:29:50.462Z,2.00
2017-09-12T03:32:17.087Z,1.77
2017-09-12T03:34:43.690Z,1.77
2017-09-12T03:37:10.317Z,1.37
2017-09-12T03:39:36.961Z,2.20
2017-09-12T03:42:03.576Z,1.70
2017-09-12T03:44:30.211Z,1.73
2017-09-12T03:46:56.823Z,2.10
2017-09-12T03:49:23.437Z,1.77
2017-09-12T03:51:50.069Z,2.00
2017-09-12T03:54:16.699Z,1.73
2017-09-12T03:56:43.347Z,2.20
2017-09-12T03:59:09.950Z,2.70
2017-09-12T04:01:36.598Z,2.50
2017-09-12T04:04:03.215Z,2.53
2017-09-12T04:06:29.835Z,2.93
2017-09-12T04:08:56.452Z,2.77
2017-09-12T04:11:23.107Z,3.77
2017-09-12T04:13:49.754Z,2.70
2017-09-12T04:16:16.386Z,3.57
2017-09-12T04:18:43.006Z,3.70
2017-09-12T04:21:09.633Z,4.30
2017-09-12T04:23:36.294Z,3.43
2017-09-12T04:26:02.927Z,4.07
2017-09-12T04:28:29.535Z,4.20
2017-09-12T04:30:56.179Z,3.87
2017-09-12T04:33:22.809Z,3.90
2017-09-12T04:35:49.411Z,4.17
2017-09-12T04:38:16.022Z,4.23
2017-09-12T04:40:42.659Z,4.90
2017-09-12T04:43:09.261Z,4.90
2017-09-12T04:45:35.890Z,5.03
2017-09-12T04:48:02.535Z,5.07
2017-09-12T04:50:29.160Z,4.30
2017-09-12T04:52:55.786Z,5.67
2017-09-12T04:55:22.390Z,4.43
2017-09-12T04:57:49.066Z,6.20
2017-09-12T05:00:15.692Z,4.63
2017-09-12T05:02:42.329Z,4.60
2017-09-12T05:05:08.972Z,4.93
2017-09-12T05:07:35.588Z,5.10
2017-09-12T05:10:02.223Z,6.27
2017-09-12T05:12:28.856Z,5.80
2017-09-12T05:14:55.457Z,5.47
2017-09-12T05:17:22.097Z,6.00
2017-09-12T05:19:48.709Z,5.87
2017-09-12T05:22:15.343Z,5.80
2017-09-12T05:24:41.963Z,5.97
2017-09-12T05:27:08.636Z,6.27
2017-09-12T05:29:35.234Z,6.30
2017-09-12T05:32:01.853Z,7.50
2017-09-12T05:34:28.482Z,6.97
2017-09-12T05:36:55.112Z,6.83
2017-09-12T05:39:21.766Z,9.23
2017-09-12T05:41:48.414Z,7.40
2017-09-12T05:44:15.027Z,8.67
2017-09-12T05:46:41.659Z,7.97
2017-09-12T05:49:08.306Z,9.27
2017-09-12T05:51:34.915Z,7.90
2017-09-12T05:54:01.542Z,10.00
2017-09-12T05:56:28.154Z,10.30
2017-09-12T05:58:54.809Z,9.47
2017-09-12T06:01:21.429Z,9.30
2017-09-12T06:03:48.032Z,10.00
2017-09-12T06:06:14.667Z,9.23
2017-09-12T06:08:41.286Z,10.70
2017-09-12T06:11:07.927Z,9.47
2017-09-12T06:13:34.559Z,10.90
2017-09-12T06:16:01.188Z,8.90
2017-09-12T06:18:27.809Z,10.90
2017-09-12T06:20:54.444Z,10.33
2017-09-12T06:23:21.059Z,11.93
2017-09-12T06:25:47.694Z,10.97
2017-09-12T06:28:14.351Z,11.90
2017-09-12T06:30:40.975Z,10.70
2017-09-12T06:33:07.611Z,11.33
2017-09-12T06:35:34.255Z,11.30
2017-09-12T06:38:00.899Z,10.50
2017-09-12T06:40:27.538Z,10.10
2017-09-12T06:42:54.186Z,10.50
2017-09-12T06:45:21.064Z,10.40
2017-09-12T06:47:47.699Z,8.70
2017-09-12T06:50:14.335Z,9.53
2017-09-12T06:52:40.977Z,7.73
2017-09-12T06:55:07.588Z,8.67
2017-09-12T06:57:34.195Z,8.17
2017-09-12T07:00:00.826Z,8.80
2017-09-12T07:02:27.435Z,7.90
2017-09-12T07:04:54.082Z,7.87
2017-09-12T07:07:20.708Z,7.80
2017-09-12T07:09:47.320Z,7.50
2017-09-12T07:12:13.954Z,6.90
2017-09-12T07:14:40.566Z,8.37
2017-09-12T07:17:07.195Z,6.37
2017-09-12T07:19:33.818Z,6.00
2017-09-12T07:22:00.456Z,6.10
2017-09-12T07:24:27.950Z,8.93
2017-09-12T07:26:54.587Z,5.77
2017-09-12T07:29:21.207Z,7.20
2017-09-12T07:31:47.819Z,6.03
2017-09-12T07:34:14.438Z,6.57
2017-09-12T07:36:41.090Z,7.13
2017-09-12T07:39:07.693Z,8.63
2017-09-12T07:41:34.335Z,8.33
2017-09-12T07:44:00.993Z,5.77
2017-09-12T07:46:27.616Z,8.03
2017-09-12T07:48:54.231Z,8.40
2017-09-12T07:51:20.843Z,6.17
2017-09-12T07:53:47.491Z,6.90
2017-09-12T07:56:14.128Z,6.23
2017-09-12T07:58:40.779Z,6.70
2017-09-12T08:01:07.441Z,6.70
2017-09-12T08:03:34.066Z,6.63
2017-09-12T08:06:00.717Z,7.27
2017-09-12T08:08:27.348Z,7.20
2017-09-12T08:10:53.959Z,6.27
2017-09-12T08:13:20.607Z,8.10
2017-09-12T08:15:47.239Z,7.70
2017-09-12T08:18:13.874Z,6.40
2017-09-12T08:20:40.479Z,6.43
2017-09-12T08:23:07.094Z,6.23
2017-09-12T08:25:33.730Z,6.10
2017-09-12T08:28:00.382Z,6.97
2017-09-12T08:30:26.991Z,5.37
2017-09-12T08:32:53.620Z,7.60
2017-09-12T08:35:20.232Z,7.10
2017-09-12T08:37:46.855Z,6.40
2017-09-12T08:40:13.502Z,7.17
2017-09-12T08:42:40.110Z,6.40
2017-09-12T08:45:06.754Z,7.33
2017-09-12T08:47:33.377Z,5.70
2017-09-12T08:50:00.012Z,5.87
2017-09-12T08:52:26.655Z,4.67
2017-09-12T08:54:53.263Z,6.77
2017-09-12T08:57:19.898Z,6.07
2017-09-12T08:59:46.542Z,6.13
2017-09-12T09:02:13.184Z,5.23
2017-09-12T09:04:39.803Z,5.70
2017-09-12T09:07:06.436Z,4.40
2017-09-12T09:09:33.079Z,4.57
2017-09-12T09:11:59.695Z,4.93
2017-09-12T09:14:26.294Z,6.07
2017-09-12T09:16:52.918Z,5.00
2017-09-12T09:19:19.555Z,4.63
2017-09-12T09:21:46.205Z,4.90
2017-09-12T09:24:12.811Z,7.63
2017-09-12T09:26:39.460Z,5.10
2017-09-12T09:29:06.070Z,5.33
2017-09-12T09:31:32.686Z,4.67
2017-09-12T09:33:59.327Z,4.20
2017-09-12T09:36:25.947Z,4.57
2017-09-12T09:38:52.603Z,4.63
2017-09-12T09:41:19.231Z,4.10
2017-09-12T09:43:45.839Z,4.10
2017-09-12T09:46:12.493Z,4.47
2017-09-12T09:48:39.102Z,4.00
2017-09-12T09:51:05.735Z,5.10
2017-09-12T09:53:32.367Z,5.70
2017-09-12T09:55:59.043Z,6.00
2017-09-12T09:58:25.658Z,5.60
2017-09-12T10:00:52.291Z,5.57
2017-09-12T10:03:18.935Z,5.50
2017-09-12T10:05:45.537Z,6.67
2017-09-12T10:08:12.175Z,5.03
2017-09-12T10:10:38.812Z,4.87
2017-09-12T10:13:05.446Z,4.97
2017-09-12T10:15:32.049Z,3.60
2017-09-12T10:17:58.695Z,4.67
2017-09-12T10:20:25.290Z,4.67
2017-09-12T10:22:51.946Z,3.53
2017-09-12T10:25:18.584Z,4.60
2017-09-12T10:27:45.187Z,3.80
2017-09-12T10:30:11.920Z,4.13
2017-09-12T10:32:38.558Z,4.70
2017-09-12T10:35:05.192Z,4.53
2017-09-12T10:37:31.819Z,4.40
2017-09-12T10:39:58.484Z,5.10
2017-09-12T10:42:25.112Z,3.73
2017-09-12T10:44:51.748Z,4.13
2017-09-12T10:47:18.382Z,2.87
2017-09-12T10:49:45.002Z,3.17
2017-09-12T10:52:11.602Z,3.73
2017-09-12T10:54:38.244Z,4.10
2017-09-12T10:57:04.885Z,3.27
2017-09-12T10:59:31.487Z,3.27
2017-09-12T11:01:58.126Z,2.93
2017-09-12T11:04:24.755Z,3.27
2017-09-12T11:06:51.387Z,4.07
2017-09-12T11:09:18.008Z,3.27
2017-09-12T11:11:44.639Z,2.87
2017-09-12T11:14:11.297Z,2.17
2017-09-12T11:16:37.907Z,2.10
2017-09-12T11:19:04.559Z,3.60
2017-09-12T11:21:31.199Z,3.03
2017-09-12T11:23:57.839Z,2.80
2017-09-12T11:26:24.455Z,3.10
2017-09-12T11:28:51.061Z,2.73
2017-09-12T11:31:17.702Z,3.40
2017-09-12T11:33:44.308Z,3.13
2017-09-12T11:36:10.968Z,4.00
2017-09-12T11:38:37.601Z,3.43
2017-09-12T11:41:04.196Z,3.20
2017-09-12T11:43:30.830Z,3.87
2017-09-12T11:45:57.450Z,3.70
2017-09-12T11:48:24.126Z,3.80
2017-09-12T11:50:50.739Z,3.97
2017-09-12T11:53:17.706Z,3.13
2017-09-12T11:55:44.342Z,3.20
2017-09-12T11:58:10.997Z,3.13
2017-09-12T12:00:37.609Z,4.40
2017-09-12T12:03:04.235Z,1.93
2017-09-12T12:05:30.854Z,3.30
2017-09-12T12:07:57.477Z,3.10
2017-09-12T12:10:24.118Z,3.33
2017-09-12T12:12:50.727Z,3.60
2017-09-12T12:15:17.337Z,3.90
2017-09-12T12:17:44.003Z,3.23
2017-09-12T12:20:10.635Z,2.60
2017-09-12T12:22:37.271Z,2.20
2017-09-12T12:25:03.900Z,2.83
2017-09-12T12:27:30.524Z,2.83
2017-09-12T12:29:57.159Z,2.90
2017-09-12T12:32:23.777Z,2.73
2017-09-12T12:34:50.416Z,2.20
2017-09-12T12:37:17.036Z,2.63
2017-09-12T12:39:43.646Z,2.07
2017-09-12T12:42:10.267Z,2.47
2017-09-12T12:44:36.888Z,2.33
2017-09-12T12:47:03.520Z,3.07
2017-09-12T12:49:30.132Z,3.10
2017-09-12T12:51:56.755Z,2.90
2017-09-12T12:54:23.371Z,3.57
2017-09-12T12:56:50.000Z,4.30
2017-09-12T12:59:16.638Z,5.00
2017-09-12T13:01:43.256Z,4.23
2017-09-12T13:04:09.863Z,3.03
2017-09-12T13:06:36.498Z,2.97
2017-09-12T13:09:03.166Z,2.50
2017-09-12T13:11:29.783Z,3.50
2017-09-12T13:13:56.403Z,2.20
2017-09-12T13:16:23.043Z,1.77
2017-09-12T13:18:49.685Z,1.90
2017-09-12T13:21:16.287Z,1.67
2017-09-12T13:23:42.907Z,1.80
2017-09-12T13:26:09.532Z,1.40
2017-09-12T13:28:36.144Z,1.60
2017-09-12T13:31:02.796Z,1.90
2017-09-12T13:33:29.427Z,1.67
2017-09-12T13:35:56.075Z,1.53
2017-09-12T13:38:22.675Z,1.00
2017-09-12T13:40:49.306Z,1.70
2017-09-12T13:43:15.947Z,1.60
2017-09-12T13:45:42.599Z,1.67
2017-09-12T13:48:09.229Z,1.03
2017-09-12T13:50:35.852Z,1.90
2017-09-12T13:53:02.539Z,1.87
2017-09-12T13:55:29.174Z,2.00
2017-09-12T13:57:55.815Z,1.87
2017-09-12T14:00:22.448Z,1.93
2017-09-12T14:02:49.083Z,1.33
2017-09-12T14:05:15.724Z,1.50
2017-09-12T14:07:42.336Z,1.50
2017-09-12T14:10:08.975Z,2.20
2017-09-12T14:12:35.586Z,1.70
2017-09-12T14:15:02.208Z,1.53
2017-09-12T14:17:28.828Z,1.90
2017-09-12T14:19:55.457Z,1.93
2017-09-12T14:22:22.105Z,1.53
2017-09-12T14:24:48.733Z,1.80
2017-09-12T14:27:15.354Z,2.37
2017-09-12T14:29:41.990Z,1.90
2017-09-12T14:32:08.595Z,1.80
2017-09-12T14:34:35.240Z,1.87
2017-09-12T14:37:01.864Z,1.90
2017-09-12T14:39:28.477Z,2.23
2017-09-12T14:41:55.111Z,1.80
2017-09-12T14:44:21.727Z,1.80
2017-09-12T14:46:48.361Z,1.47
2017-09-12T14:49:14.980Z,1.50
2017-09-12T14:51:41.583Z,1.83
2017-09-12T14:54:08.195Z,1.47
2017-09-12T14:56:34.849Z,2.03
2017-09-12T14:59:01.503Z,1.80
2017-09-12T15:01:28.127Z,1.53
2017-09-12T15:03:54.767Z,2.13
2017-09-12T15:06:21.412Z,2.43
2017-09-12T15:08:48.046Z,1.80
2017-09-12T15:11:14.671Z,3.90
2017-09-12T15:13:41.304Z,1.73
2017-09-12T15:16:07.926Z,2.10
2017-09-12T15:18:34.528Z,1.67
2017-09-12T15:21:01.188Z,2.43
2017-09-12T15:23:27.794Z,2.20
2017-09-12T15:25:54.445Z,1.87
2017-09-12T15:28:21.052Z,1.80
2017-09-12T15:30:47.667Z,2.00
2017-09-12T15:33:14.288Z,1.97
2017-09-12T15:35:40.905Z,2.13
2017-09-12T15:38:07.529Z,2.53
2017-09-12T15:40:34.485Z,1.90
2017-09-12T15:43:01.158Z,2.10
2017-09-12T15:45:27.798Z,2.00
2017-09-12T15:47:54.444Z,2.07
2017-09-12T15:50:21.086Z,2.40
2017-09-12T15:52:47.704Z,2.60
2017-09-12T15:55:14.339Z,2.57
2017-09-12T15:57:41.009Z,1.87
2017-09-12T16:00:07.610Z,1.77
2017-09-12T16:02:34.280Z,1.70
2017-09-12T16:05:00.915Z,1.80
2017-09-12T16:07:27.543Z,1.50
2017-09-12T16:09:54.188Z,1.73
2017-09-12T16:12:20.840Z,1.87
2017-09-12T16:14:47.448Z,1.70
2017-09-12T16:17:14.097Z,1.33
2017-09-12T16:19:40.724Z,1.50
2017-09-12T16:22:07.335Z,1.90
2017-09-12T16:24:33.975Z,1.83
2017-09-12T16:27:00.603Z,1.63
2017-09-12T16:29:27.218Z,2.10
2017-09-12T16:31:53.864Z,1.90
2017-09-12T16:34:20.463Z,2.17
2017-09-12T16:36:47.119Z,1.53
2017-09-12T16:39:13.761Z,2.03
2017-09-12T16:41:40.407Z,2.20
2017-09-12T16:44:07.027Z,2.00
2017-09-12T16:46:33.650Z,2.20
2017-09-12T16:49:00.296Z,1.90
2017-09-12T16:51:26.907Z,3.10
2017-09-12T16:53:53.536Z,2.27
2017-09-12T16:56:20.160Z,2.30
2017-09-12T16:58:46.800Z,1.37
2017-09-12T17:01:13.441Z,2.40
2017-09-12T17:03:40.081Z,2.13
2017-09-12T17:06:06.735Z,2.77
2017-09-12T17:08:33.360Z,2.13
2017-09-12T17:10:59.976Z,2.00
2017-09-12T17:13:26.590Z,2.77
2017-09-12T17:15:53.230Z,2.53
2017-09-12T17:18:19.852Z,2.37
2017-09-12T17:20:46.463Z,2.47
2017-09-12T17:23:13.125Z,2.30
2017-09-12T17:25:39.739Z,2.30
2017-09-12T17:28:06.384Z,2.60
2017-09-12T17:30:33.082Z,2.67
2017-09-12T17:32:59.826Z,2.33
2017-09-12T17:35:26.607Z,3.17
2017-09-12T17:37:53.259Z,2.73
2017-09-12T17:40:19.877Z,3.70
2017-09-12T17:42:46.507Z,3.30
2017-09-12T17:45:13.393Z,2.73
2017-09-12T17:47:40.364Z,3.13
2017-09-12T17:50:07.030Z,3.13
2017-09-12T17:52:33.666Z,3.87
2017-09-12T17:55:00.316Z,4.03
2017-09-12T17:57:27.230Z,3.60
2017-09-12T17:59:54.179Z,3.63
2017-09-12T18:02:21.137Z,3.97
2017-09-12T18:04:48.050Z,3.70
2017-09-12T18:07:14.723Z,3.53
2017-09-12T18:09:41.384Z,4.20
2017-09-12T18:12:08.029Z,2.90
2017-09-12T18:14:34.631Z,2.63
2017-09-12T18:17:01.280Z,3.17
2017-09-12T18:19:27.924Z,3.03
2017-09-12T18:21:54.587Z,3.57
2017-09-12T18:24:21.509Z,2.73
2017-09-12T18:26:48.131Z,2.93
2017-09-12T18:29:14.776Z,2.80
2017-09-12T18:31:41.408Z,2.93
2017-09-12T18:34:08.076Z,2.80
2017-09-12T18:36:34.705Z,2.40
2017-09-12T18:39:01.378Z,2.90
2017-09-12T18:41:28.059Z,1.90
2017-09-12T18:43:54.692Z,2.10
2017-09-12T18:46:21.391Z,2.60
2017-09-12T18:48:48.070Z,2.63
2017-09-12T18:51:14.760Z,2.43
2017-09-12T18:53:41.775Z,2.23
2017-09-12T18:56:08.459Z,2.30
2017-09-12T18:58:35.371Z,2.33
2017-09-12T19:01:02.350Z,2.10
2017-09-12T19:03:29.016Z,2.40
2017-09-12T19:05:55.671Z,1.50
2017-09-12T19:08:22.351Z,1.60
2017-09-12T19:10:48.981Z,2.80
2017-09-12T19:13:15.924Z,1.90
2017-09-12T19:15:42.572Z,2.40
2017-09-12T19:18:09.198Z,2.10
2017-09-12T19:20:35.857Z,2.33
2017-09-12T19:23:02.493Z,2.00
2017-09-12T19:25:29.152Z,2.23
2017-09-12T19:27:55.791Z,2.57
2017-09-12T19:30:22.463Z,2.30
2017-09-12T19:32:49.080Z,2.00
2017-09-12T19:35:15.723Z,2.03
2017-09-12T19:37:42.357Z,2.33
2017-09-12T19:40:08.968Z,2.30
2017-09-12T19:42:35.635Z,2.40
2017-09-12T19:45:02.267Z,2.13
2017-09-12T19:47:28.944Z,3.00
2017-09-12T19:49:55.591Z,2.07
2017-09-12T19:52:22.245Z,3.37
2017-09-12T19:54:48.873Z,2.33
2017-09-12T19:57:15.514Z,2.03
2017-09-12T19:59:42.147Z,5.37
2017-09-12T20:02:08.788Z,1.70
2017-09-12T20:04:35.432Z,2.63
2017-09-12T20:07:02.087Z,1.97
2017-09-12T20:09:29.138Z,2.00
2017-09-12T20:11:56.117Z,3.27
2017-09-12T20:14:22.769Z,2.10
2017-09-12T20:16:49.398Z,2.77
2017-09-12T20:19:16.060Z,2.30
2017-09-12T20:21:42.682Z,2.93
2017-09-12T20:24:09.662Z,2.73
2017-09-12T20:26:36.289Z,1.97
2017-09-12T20:29:02.931Z,1.70
2017-09-12T20:31:29.598Z,2.23
2017-09-12T20:33:56.274Z,2.43
2017-09-12T20:36:22.907Z,2.03
2017-09-12T20:38:49.565Z,2.10
2017-09-12T20:41:16.185Z,2.27
2017-09-12T20:43:42.853Z,2.50
2017-09-12T20:46:09.469Z,2.70
2017-09-12T20:48:36.137Z,3.33
2017-09-12T20:51:02.811Z,2.17
2017-09-12T20:53:29.419Z,3.73
2017-09-12T20:55:56.055Z,1.80
2017-09-12T20:58:22.681Z,1.90
2017-09-12T21:00:49.308Z,2.37
2017-09-12T21:03:15.943Z,1.77
2017-09-12T21:05:42.592Z,2.17
2017-09-12T21:08:09.233Z,2.20
2017-09-12T21:10:35.861Z,1.90
2017-09-12T21:13:02.512Z,2.50
2017-09-12T21:15:29.125Z,1.90
2017-09-12T21:17:55.736Z,2.07
2017-09-12T21:20:22.377Z,2.80
2017-09-12T21:22:49.233Z,2.10
2017-09-12T21:25:15.865Z,2.13
2017-09-12T21:27:42.479Z,2.20
2017-09-12T21:30:09.188Z,1.97
2017-09-12T21:32:35.799Z,2.23
2017-09-12T21:35:02.456Z,1.80
2017-09-12T21:37:29.088Z,1.87
2017-09-12T21:39:55.705Z,2.00
2017-09-12T21:42:22.356Z,1.77
2017-09-12T21:44:48.987Z,2.57
2017-09-12T21:47:15.601Z,1.60
2017-09-12T21:49:42.246Z,4.17
2017-09-12T21:52:08.904Z,1.70
2017-09-12T21:54:35.560Z,1.73
2017-09-12T21:57:02.187Z,2.47
2017-09-12T21:59:28.801Z,2.07
2017-09-12T22:01:55.408Z,2.30
2017-09-12T22:04:22.102Z,1.40
2017-09-12T22:06:48.717Z,1.43
2017-09-12T22:09:15.327Z,2.17
2017-09-12T22:11:41.963Z,1.90
2017-09-12T22:14:08.591Z,1.40
2017-09-12T22:16:35.221Z,2.40
2017-09-12T22:19:02.263Z,2.00
2017-09-12T22:21:28.931Z,1.57
2017-09-12T22:23:55.576Z,2.00
2017-09-12T22:26:22.207Z,1.53
2017-09-12T22:28:48.863Z,2.50
2017-09-12T22:31:15.470Z,2.00
2017-09-12T22:33:42.122Z,1.60
2017-09-12T22:36:08.737Z,2.87
2017-09-12T22:38:35.367Z,1.70
2017-09-12T22:41:02.022Z,1.87
2017-09-12T22:43:28.650Z,1.90
2017-09-12T22:45:55.285Z,1.70
2017-09-12T22:48:21.917Z,1.87
2017-09-12T22:50:48.584Z,1.90
2017-09-12T22:53:15.208Z,1.43
2017-09-12T22:55:41.832Z,1.83
2017-09-12T22:58:08.453Z,1.40
2017-09-12T23:00:35.079Z,1.57
2017-09-12T23:03:01.680Z,1.60
2017-09-12T23:05:28.307Z,1.73
2017-09-12T23:07:54.948Z,1.93
2017-09-12T23:10:21.599Z,1.87
2017-09-12T23:12:48.612Z,1.77
2017-09-12T23:15:15.268Z,1.90
2017-09-12T23:17:41.930Z,2.10
2017-09-12T23:20:08.880Z,2.00
2017-09-12T23:22:35.499Z,2.00
2017-09-12T23:25:02.142Z,1.60
2017-09-12T23:27:28.771Z,2.20
2017-09-12T23:29:55.383Z,1.90
2017-09-12T23:32:22.072Z,2.13
2017-09-12T23:34:48.712Z,1.60
2017-09-12T23:37:15.369Z,2.43
2017-09-12T23:39:42.008Z,1.80
2017-09-12T23:42:08.664Z,1.77
2017-09-12T23:44:35.299Z,1.80
2017-09-12T23:47:01.942Z,2.20
2017-09-12T23:49:28.568Z,2.03
2017-09-12T23:51:55.167Z,2.90
2017-09-12T23:54:21.783Z,2.53
2017-09-12T23:56:48.748Z,1.73
2017-09-12T23:59:15.376Z,2.40
